Yasemin — 9HA2114 — position and weather

sailwx.info

Track history (hours):
 
Tides and Currents Weather Stations Pressure Air Temp Water Temp Dewpoint Dewpoint Depression Visibility Wind Speed Wind Dir Waves Ship Positions

Yasemin

Last reported at 2017-Jan-21 01:33 UTC. Time now 2017-Jan-21 19:37 UTC.
Position N 35°59' W 005°16'.

Length 105 m; draft 7.7 m.

Type: Cargo ship. MMSI: 249988000.

Date/timePositionNaut miles runAvg speedWind from/ knotsBaromVisibWave heightAir tempDewpointWater temp
2017-Jan-21 01:33N 35°59' W 005°16'1111.3
2017-Jan-21 00:33N 35°57' W 005°30'257 9.9
2017-Jan-19 22:28N 38°18' W 009°60'1311.6
2017-Jan-19 21:23N 38°30' W 010°04'911.5
2017-Jan-19 20:33N 38°39' W 010°06'1211.5
2017-Jan-19 19:33N 38°51' W 010°06'1111.5
2017-Jan-19 18:33N 39°02' W 010°06'  
2017-Jan-17 01:28N 49°44' W 003°37'1112.0
2017-Jan-17 00:33N 49°49' W 003°23'1111.0
2017-Jan-16 23:34N 49°55' W 003°08'1010.0
2017-Jan-16 22:33N 49°59' W 002°53'11 9.5
2017-Jan-16 21:23N 50°02' W 002°37'3211.3
2017-Jan-16 18:33N 50°12' W 001°49'1514.2
2017-Jan-16 17:29N 50°16' W 001°26'5213.4
2017-Jan-16 13:33N 50°30' W 000°07'1010.4
2017-Jan-16 12:33N 50°33' E 000°08'9 9.3
2017-Jan-16 11:33N 50°35' E 000°23'9 9.3
2017-Jan-16 10:33N 50°38' E 000°37'1111.0
2017-Jan-16 09:34N 50°45' E 000°50'2612.8
2017-Jan-16 07:33N 51°01' E 001°22'1211.8
2017-Jan-16 06:34N 51°09' E 001°36'1010.3
2017-Jan-16 05:33N 51°16' E 001°47'10 9.6
2017-Jan-16 04:34N 51°25' E 001°54'10 9.6
2017-Jan-16 03:33N 51°33' E 002°04'5811.6
2017-Jan-15 22:33N 52°19' E 003°02'42010.2
2017-Jan-14 05:12N 57°52' E 010°28'7 8.4
2017-Jan-14 04:23N 57°52' E 010°41'8 9.6
2017-Jan-14 03:33N 57°46' E 010°51'4110.4
2017-Jan-13 23:33N 57°12' E 011°36'5911.1
2017-Jan-13 18:14N 56°16' E 012°10'811.1
2017-Jan-13 17:33N 56°12' E 012°21'1212.1
2017-Jan-13 16:33N 56°04' E 012°38'1111.3
2017-Jan-13 15:34N 55°53' E 012°45'1111.1
2017-Jan-13 14:34N 55°43' E 012°52'9 9.0
2017-Jan-13 13:34N 55°34' E 012°49'1110.9
2017-Jan-13 12:34N 55°24' E 012°42'9 8.9
2017-Jan-13 11:33N 55°17' E 012°50'1210.8
2017-Jan-13 10:26N 55°08' E 013°05'9410.3
2017-Jan-13 01:19N 53°46' E 014°24'7 9.7
2017-Jan-13 00:33N 53°40' E 014°32'9 8.9
2017-Jan-12 23:33N 53°32' E 014°38'6 5.7
2017-Jan-12 22:31N 53°26' E 014°35'0 0.0
2017-Jan-12 21:31N 53°26' E 014°35'0 0.0
2017-Jan-12 20:31N 53°26' E 014°35'0 0.0
2017-Jan-12 19:31N 53°26' E 014°35'0 0.0
2017-Jan-12 18:31N 53°26' E 014°35'0 0.0
2017-Jan-12 17:31N 53°26' E 014°35'0 0.0
2017-Jan-12 16:31N 53°26' E 014°35'0 0.0
2017-Jan-12 15:31N 53°26' E 014°35'0 0.0
2017-Jan-12 14:31N 53°26' E 014°35'0 0.0
2017-Jan-12 13:31N 53°26' E 014°35'0 0.0
2017-Jan-12 12:31N 53°26' E 014°35'0 0.0
2017-Jan-12 11:31N 53°26' E 014°35'0 0.0
2017-Jan-12 10:31N 53°26' E 014°35'0 0.0
2017-Jan-12 09:31N 53°26' E 014°35'0 0.0
2017-Jan-12 08:31N 53°26' E 014°35'0 0.0
2017-Jan-12 07:31N 53°26' E 014°35'0 0.0
2017-Jan-12 06:31N 53°26' E 014°35'0 0.0
2017-Jan-12 05:31N 53°26' E 014°35'0 0.0
2017-Jan-12 04:31N 53°26' E 014°35'0 0.0
2017-Jan-12 03:31N 53°26' E 014°35'0 0.0
2017-Jan-12 02:31N 53°26' E 014°35'0 0.0
2017-Jan-12 01:31N 53°26' E 014°35'0 0.0
2017-Jan-12 00:28N 53°26' E 014°35'0 0.0
2017-Jan-11 23:31N 53°26' E 014°35'0 0.0
2017-Jan-11 22:31N 53°26' E 014°35'0 0.0
2017-Jan-11 21:31N 53°26' E 014°35'0 0.0
2017-Jan-11 20:31N 53°26' E 014°35'0 0.0
2017-Jan-11 19:31N 53°26' E 014°35'0 0.0
2017-Jan-11 18:31N 53°26' E 014°35'0 0.0
2017-Jan-11 17:33N 53°26' E 014°35'0 0.0
2017-Jan-11 16:33N 53°26' E 014°35'3 3.3
2017-Jan-11 15:33N 53°29' E 014°37'10 9.9
2017-Jan-11 14:33N 53°39' E 014°33'1110.9
2017-Jan-11 13:33N 53°47' E 014°22'70 8.6
2017-Jan-11 05:29N 54°50' E 013°30'2010.5
2017-Jan-11 03:32N 55°06' E 013°07'1110.9
2017-Jan-11 02:33N 55°14' E 012°54'  
Track history (hours):
 
Tides and Currents Weather Stations Pressure Air Temp Water Temp Dewpoint Dewpoint Depression Visibility Wind Speed Wind Dir Waves Ship Positions

Yasemin

Last reported at 2017-Jan-21 01:33 UTC. Time now 2017-Jan-21 19:37 UTC.
Position N 35°59' W 005°16'.

Length 105 m; draft 7.7 m.

Type: Cargo ship. MMSI: 249988000.

Date/timePositionNaut miles runAvg speedWind from/ knotsBaromVisibWave heightAir tempDewpointWater temp
2017-Jan-21 01:33N 35°59' W 005°16'1111.3
2017-Jan-21 00:33N 35°57' W 005°30'257 9.9
2017-Jan-19 22:28N 38°18' W 009°60'1311.6
2017-Jan-19 21:23N 38°30' W 010°04'911.5
2017-Jan-19 20:33N 38°39' W 010°06'1211.5
2017-Jan-19 19:33N 38°51' W 010°06'1111.5
2017-Jan-19 18:33N 39°02' W 010°06'  
2017-Jan-17 01:28N 49°44' W 003°37'1112.0
2017-Jan-17 00:33N 49°49' W 003°23'1111.0
2017-Jan-16 23:34N 49°55' W 003°08'1010.0
2017-Jan-16 22:33N 49°59' W 002°53'11 9.5
2017-Jan-16 21:23N 50°02' W 002°37'3211.3
2017-Jan-16 18:33N 50°12' W 001°49'1514.2
2017-Jan-16 17:29N 50°16' W 001°26'5213.4
2017-Jan-16 13:33N 50°30' W 000°07'1010.4
2017-Jan-16 12:33N 50°33' E 000°08'9 9.3
2017-Jan-16 11:33N 50°35' E 000°23'9 9.3
2017-Jan-16 10:33N 50°38' E 000°37'1111.0
2017-Jan-16 09:34N 50°45' E 000°50'2612.8
2017-Jan-16 07:33N 51°01' E 001°22'1211.8
2017-Jan-16 06:34N 51°09' E 001°36'1010.3
2017-Jan-16 05:33N 51°16' E 001°47'10 9.6
2017-Jan-16 04:34N 51°25' E 001°54'10 9.6
2017-Jan-16 03:33N 51°33' E 002°04'5811.6
2017-Jan-15 22:33N 52°19' E 003°02'42010.2
2017-Jan-14 05:12N 57°52' E 010°28'7 8.4
2017-Jan-14 04:23N 57°52' E 010°41'8 9.6
2017-Jan-14 03:33N 57°46' E 010°51'4110.4
2017-Jan-13 23:33N 57°12' E 011°36'5911.1
2017-Jan-13 18:14N 56°16' E 012°10'811.1
2017-Jan-13 17:33N 56°12' E 012°21'1212.1
2017-Jan-13 16:33N 56°04' E 012°38'1111.3
2017-Jan-13 15:34N 55°53' E 012°45'1111.1
2017-Jan-13 14:34N 55°43' E 012°52'9 9.0
2017-Jan-13 13:34N 55°34' E 012°49'1110.9
2017-Jan-13 12:34N 55°24' E 012°42'9 8.9
2017-Jan-13 11:33N 55°17' E 012°50'1210.8
2017-Jan-13 10:26N 55°08' E 013°05'9410.3
2017-Jan-13 01:19N 53°46' E 014°24'7 9.7
2017-Jan-13 00:33N 53°40' E 014°32'9 8.9
2017-Jan-12 23:33N 53°32' E 014°38'6 5.7
2017-Jan-12 22:31N 53°26' E 014°35'0 0.0
2017-Jan-12 21:31N 53°26' E 014°35'0 0.0
2017-Jan-12 20:31N 53°26' E 014°35'0 0.0
2017-Jan-12 19:31N 53°26' E 014°35'0 0.0
2017-Jan-12 18:31N 53°26' E 014°35'0 0.0
2017-Jan-12 17:31N 53°26' E 014°35'0 0.0
2017-Jan-12 16:31N 53°26' E 014°35'0 0.0
2017-Jan-12 15:31N 53°26' E 014°35'0 0.0
2017-Jan-12 14:31N 53°26' E 014°35'0 0.0
2017-Jan-12 13:31N 53°26' E 014°35'0 0.0
2017-Jan-12 12:31N 53°26' E 014°35'0 0.0
2017-Jan-12 11:31N 53°26' E 014°35'0 0.0
2017-Jan-12 10:31N 53°26' E 014°35'0 0.0
2017-Jan-12 09:31N 53°26' E 014°35'0 0.0
2017-Jan-12 08:31N 53°26' E 014°35'0 0.0
2017-Jan-12 07:31N 53°26' E 014°35'0 0.0
2017-Jan-12 06:31N 53°26' E 014°35'0 0.0
2017-Jan-12 05:31N 53°26' E 014°35'0 0.0
2017-Jan-12 04:31N 53°26' E 014°35'0 0.0
2017-Jan-12 03:31N 53°26' E 014°35'0 0.0
2017-Jan-12 02:31N 53°26' E 014°35'0 0.0
2017-Jan-12 01:31N 53°26' E 014°35'0 0.0
2017-Jan-12 00:28N 53°26' E 014°35'0 0.0
2017-Jan-11 23:31N 53°26' E 014°35'0 0.0
2017-Jan-11 22:31N 53°26' E 014°35'0 0.0
2017-Jan-11 21:31N 53°26' E 014°35'0 0.0
2017-Jan-11 20:31N 53°26' E 014°35'0 0.0
2017-Jan-11 19:31N 53°26' E 014°35'0 0.0
2017-Jan-11 18:31N 53°26' E 014°35'0 0.0
2017-Jan-11 17:33N 53°26' E 014°35'0 0.0
2017-Jan-11 16:33N 53°26' E 014°35'3 3.3
2017-Jan-11 15:33N 53°29' E 014°37'10 9.9
2017-Jan-11 14:33N 53°39' E 014°33'1110.9
2017-Jan-11 13:33N 53°47' E 014°22'70 8.6
2017-Jan-11 05:29N 54°50' E 013°30'2010.5
2017-Jan-11 03:32N 55°06' E 013°07'1110.9
2017-Jan-11 02:33N 55°14' E 012°54'  

Dump ship's entire track history